createdAt,value
2019-02-14T00:00:08.101Z,46.90
2019-02-14T00:02:36.424Z,46.90
2019-02-14T00:05:05.253Z,46.90
2019-02-14T00:07:33.922Z,47.00
2019-02-14T00:10:02.214Z,47.00
2019-02-14T00:12:30.792Z,47.00
2019-02-14T00:14:59.370Z,46.90
2019-02-14T00:17:27.950Z,47.00
2019-02-14T00:19:56.259Z,46.90
2019-02-14T00:22:24.563Z,46.90
2019-02-14T00:24:53.192Z,46.90
2019-02-14T00:27:21.506Z,46.90
2019-02-14T00:29:50.073Z,47.00
2019-02-14T00:32:18.640Z,46.90
2019-02-14T00:34:47.216Z,47.00
2019-02-14T00:37:15.798Z,47.00
2019-02-14T00:39:44.116Z,47.00
2019-02-14T00:42:12.422Z,47.00
2019-02-14T00:44:40.723Z,47.00
2019-02-14T00:47:09.407Z,47.10
2019-02-14T00:49:38.008Z,47.20
2019-02-14T00:52:06.322Z,47.10
2019-02-14T00:54:34.602Z,47.10
2019-02-14T00:57:03.246Z,47.20
2019-02-14T00:59:31.538Z,47.20
2019-02-14T01:02:00.114Z,47.10
2019-02-14T01:04:28.454Z,47.10
2019-02-14T01:06:56.806Z,47.10
2019-02-14T01:09:25.129Z,47.00
2019-02-14T01:11:53.410Z,47.00
2019-02-14T01:14:22.046Z,47.30
2019-02-14T01:16:50.791Z,47.10
2019-02-14T01:19:19.366Z,47.10
2019-02-14T01:21:47.963Z,47.10
2019-02-14T01:24:16.535Z,47.10
2019-02-14T01:26:44.832Z,47.10
2019-02-14T01:29:13.115Z,47.10
2019-02-14T01:31:41.438Z,47.20
2019-02-14T01:34:09.726Z,47.10
2019-02-14T01:36:38.027Z,47.50
2019-02-14T01:39:06.919Z,47.10
2019-02-14T01:41:35.510Z,47.20
2019-02-14T01:44:04.083Z,47.10
2019-02-14T01:46:32.667Z,47.10
2019-02-14T01:49:00.968Z,47.10
2019-02-14T01:51:29.290Z,47.10
2019-02-14T01:53:59.086Z,47.20
2019-02-14T01:56:27.819Z,47.20
2019-02-14T01:58:56.123Z,47.20
2019-02-14T02:01:24.990Z,47.30
2019-02-14T02:03:53.306Z,47.30
2019-02-14T02:06:21.954Z,47.40
2019-02-14T02:08:50.262Z,47.40
2019-02-14T02:11:18.819Z,47.40
2019-02-14T02:13:47.399Z,47.30
2019-02-14T02:16:15.980Z,47.40
2019-02-14T02:18:44.568Z,47.40
2019-02-14T02:21:12.874Z,47.20
2019-02-14T02:23:41.162Z,47.10
2019-02-14T02:26:09.513Z,47.00
2019-02-14T02:28:38.139Z,47.10
2019-02-14T02:31:06.977Z,47.00
2019-02-14T02:33:35.277Z,47.10
2019-02-14T02:36:03.599Z,47.00
2019-02-14T02:38:31.894Z,47.00
2019-02-14T02:41:00.479Z,47.10
2019-02-14T02:43:29.077Z,47.00
2019-02-14T02:45:57.659Z,47.00
2019-02-14T02:48:25.961Z,47.00
2019-02-14T02:50:54.511Z,46.90
2019-02-14T02:53:23.107Z,47.00
2019-02-14T02:55:51.390Z,46.80
2019-02-14T02:58:20.160Z,46.90
2019-02-14T03:00:48.738Z,46.90
2019-02-14T03:03:17.031Z,46.90
2019-02-14T03:05:45.342Z,46.90
2019-02-14T03:08:15.121Z,46.80
2019-02-14T03:10:43.499Z,46.90
2019-02-14T03:13:11.790Z,47.10
2019-02-14T03:15:40.355Z,46.80
2019-02-14T03:18:08.669Z,46.90
2019-02-14T03:20:37.034Z,47.50
2019-02-14T03:23:05.333Z,46.90
2019-02-14T03:25:33.635Z,46.80
2019-02-14T03:28:01.950Z,46.90
2019-02-14T03:30:30.506Z,47.00
2019-02-14T03:32:58.879Z,47.10
2019-02-14T03:35:27.273Z,47.00
2019-02-14T03:37:55.859Z,47.00
2019-02-14T03:40:24.449Z,47.00
2019-02-14T03:42:54.123Z,47.60
2019-02-14T03:45:22.845Z,47.00
2019-02-14T03:47:51.154Z,47.00
2019-02-14T03:50:19.442Z,47.00
2019-02-14T03:52:47.758Z,47.00
2019-02-14T03:55:16.417Z,47.00
2019-02-14T03:57:44.747Z,47.10
2019-02-14T04:00:16.318Z,47.00
2019-02-14T04:02:44.879Z,47.00
2019-02-14T04:05:13.466Z,47.00
2019-02-14T04:07:42.039Z,47.00
2019-02-14T04:10:14.620Z,47.00
2019-02-14T04:12:42.927Z,47.00
2019-02-14T04:15:13.719Z,47.00
2019-02-14T04:17:41.994Z,47.10
2019-02-14T04:20:10.937Z,47.10
2019-02-14T04:25:36.618Z,46.90
2019-02-14T04:28:05.838Z,46.90
2019-02-14T04:30:34.427Z,46.90
2019-02-14T04:33:03.002Z,46.90
2019-02-14T04:35:31.318Z,47.00
2019-02-14T04:37:59.607Z,47.00
2019-02-14T04:40:33.425Z,46.90
2019-02-14T04:42:58.018Z,46.90
2019-02-14T04:45:26.344Z,47.00
2019-02-14T04:47:54.653Z,47.00
2019-02-14T04:50:22.940Z,46.90
2019-02-14T04:52:51.312Z,46.90
2019-02-14T04:55:19.595Z,46.90
2019-02-14T04:57:47.905Z,46.90
2019-02-14T05:00:16.360Z,46.90
2019-02-14T05:02:44.988Z,47.00
2019-02-14T05:05:13.299Z,46.90
2019-02-14T05:07:41.948Z,46.90
2019-02-14T05:10:11.864Z,46.90
2019-02-14T05:12:40.446Z,46.80
2019-02-14T05:15:11.435Z,46.90
2019-02-14T05:17:40.084Z,46.90
2019-02-14T05:20:10.524Z,46.90
2019-02-14T05:22:38.793Z,47.00
2019-02-14T05:25:08.783Z,46.90
2019-02-14T05:27:37.143Z,46.80
2019-02-14T05:30:13.949Z,46.80
2019-02-14T05:32:42.342Z,46.90
2019-02-14T05:35:10.915Z,46.70
2019-02-14T05:37:39.492Z,46.80
2019-02-14T05:40:10.791Z,46.90
2019-02-14T05:42:39.251Z,47.00
2019-02-14T05:45:12.360Z,47.00
2019-02-14T05:47:40.895Z,46.90
2019-02-14T05:50:11.031Z,46.90
2019-02-14T05:52:39.596Z,47.00
2019-02-14T05:55:12.690Z,46.90
2019-02-14T05:57:41.037Z,46.90
2019-02-14T06:00:13.026Z,47.60
2019-02-14T06:02:41.314Z,47.00
2019-02-14T06:05:09.892Z,46.90
2019-02-14T06:07:38.475Z,46.90
2019-02-14T06:10:09.252Z,47.00
2019-02-14T06:12:37.552Z,46.90
2019-02-14T06:15:10.719Z,46.90
2019-02-14T06:17:39.007Z,47.60
2019-02-14T06:20:09.601Z,46.90
2019-02-14T06:22:38.277Z,46.90
2019-02-14T06:25:08.600Z,46.80
2019-02-14T06:27:36.978Z,46.80
2019-02-14T06:30:08.934Z,46.90
2019-02-14T06:32:37.242Z,46.80
2019-02-14T06:35:07.318Z,46.80
2019-02-14T06:37:35.910Z,46.80
2019-02-14T06:40:07.263Z,46.80
2019-02-14T06:42:35.548Z,46.80
2019-02-14T06:45:05.487Z,46.80
2019-02-14T06:47:33.767Z,46.80
2019-02-14T06:50:02.065Z,46.70
2019-02-14T06:52:30.354Z,46.70
2019-02-14T06:54:58.966Z,46.80
2019-02-14T06:57:27.512Z,46.80
2019-02-14T06:59:56.135Z,46.70
2019-02-14T07:02:24.447Z,46.80
2019-02-14T07:04:52.894Z,46.80
2019-02-14T07:07:21.178Z,46.90
2019-02-14T07:09:49.480Z,46.80
2019-02-14T07:12:17.773Z,46.70
2019-02-14T07:14:46.079Z,46.80
2019-02-14T07:17:14.687Z,46.80
2019-02-14T07:19:42.990Z,46.90
2019-02-14T07:22:11.280Z,46.80
2019-02-14T07:24:39.928Z,46.80
2019-02-14T07:27:08.712Z,46.80
2019-02-14T07:29:36.993Z,46.80
2019-02-14T07:32:05.286Z,46.80
2019-02-14T07:34:33.578Z,46.80
2019-02-14T07:37:01.882Z,46.70
2019-02-14T07:39:30.516Z,46.80
2019-02-14T07:41:59.093Z,46.80
2019-02-14T07:44:27.674Z,46.80
2019-02-14T07:46:56.254Z,46.80
2019-02-14T07:49:24.844Z,46.70
2019-02-14T07:51:53.232Z,46.70
2019-02-14T07:54:21.549Z,46.90
2019-02-14T07:56:49.822Z,46.80
2019-02-14T07:59:18.483Z,46.90
2019-02-14T08:01:47.148Z,46.80
2019-02-14T08:04:15.461Z,46.90
2019-02-14T08:06:44.108Z,46.80
2019-02-14T08:09:12.428Z,46.90
2019-02-14T08:11:40.722Z,46.80
2019-02-14T08:14:09.364Z,46.90
2019-02-14T08:16:37.688Z,47.00
2019-02-14T08:19:05.971Z,47.00
2019-02-14T08:21:34.286Z,47.00
2019-02-14T08:24:02.571Z,47.10
2019-02-14T08:26:30.880Z,47.00
2019-02-14T08:28:59.197Z,47.00
2019-02-14T08:31:27.801Z,47.10
2019-02-14T08:33:56.399Z,47.10
2019-02-14T08:36:24.695Z,47.10
2019-02-14T08:38:53.246Z,46.90
2019-02-14T08:41:21.566Z,46.90
2019-02-14T08:43:50.210Z,46.90
2019-02-14T08:46:18.791Z,47.00
2019-02-14T08:48:47.367Z,46.90
2019-02-14T08:51:15.672Z,46.90
2019-02-14T08:53:43.959Z,47.10
2019-02-14T08:56:12.615Z,47.20
2019-02-14T08:58:41.199Z,47.10
2019-02-14T09:01:09.515Z,47.20
2019-02-14T09:03:37.802Z,47.30
2019-02-14T09:06:06.450Z,47.20
2019-02-14T09:08:34.755Z,47.30
2019-02-14T09:11:03.077Z,47.20
2019-02-14T09:13:31.690Z,47.50
2019-02-14T09:16:00.151Z,47.30
2019-02-14T09:18:30.695Z,47.10
2019-02-14T09:20:58.987Z,46.80
2019-02-14T09:23:27.663Z,46.40
2019-02-14T09:25:55.950Z,46.10
2019-02-14T09:28:24.516Z,45.90
2019-02-14T09:30:52.825Z,45.70
2019-02-14T09:33:21.239Z,45.50
2019-02-14T09:35:49.855Z,45.40
2019-02-14T09:38:18.186Z,45.60
2019-02-14T09:40:46.488Z,45.90
2019-02-14T09:43:14.781Z,46.10
2019-02-14T09:45:43.078Z,46.60
2019-02-14T09:48:11.548Z,46.60
2019-02-14T09:50:43.994Z,46.70
2019-02-14T09:53:12.605Z,46.80
2019-02-14T09:55:41.015Z,46.80
2019-02-14T09:58:11.308Z,46.90
2019-02-14T10:00:39.633Z,46.90
2019-02-14T10:03:08.295Z,46.90
2019-02-14T10:05:36.666Z,47.00
2019-02-14T10:08:12.409Z,47.40
2019-02-14T10:10:35.085Z,47.30
2019-02-14T10:13:03.416Z,47.40
2019-02-14T10:15:32.013Z,47.40
2019-02-14T10:18:00.303Z,47.50
2019-02-14T10:20:28.637Z,47.40
2019-02-14T10:22:56.931Z,47.30
2019-02-14T10:25:25.234Z,47.40
2019-02-14T10:27:53.548Z,47.10
2019-02-14T10:30:22.911Z,47.20
2019-02-14T10:32:51.309Z,47.30
2019-02-14T10:35:19.702Z,47.30
2019-02-14T10:37:48.072Z,47.20
2019-02-14T10:40:16.987Z,47.30
2019-02-14T10:42:45.616Z,47.30
2019-02-14T10:45:16.957Z,48.00
2019-02-14T10:47:45.249Z,47.30
2019-02-14T10:50:13.634Z,47.40
2019-02-14T10:52:41.953Z,47.40
2019-02-14T10:55:12.048Z,47.40
2019-02-14T10:57:40.698Z,47.60
2019-02-14T11:00:28.070Z,47.50
2019-02-14T11:02:56.408Z,47.60
2019-02-14T11:05:24.780Z,47.50
2019-02-14T11:07:53.331Z,47.50
2019-02-14T11:10:21.650Z,47.30
2019-02-14T11:12:49.959Z,47.50
2019-02-14T11:15:20.635Z,47.50
2019-02-14T11:17:49.243Z,47.50
2019-02-14T11:20:18.082Z,47.50
2019-02-14T11:22:58.463Z,47.60
2019-02-14T11:25:35.138Z,47.60
2019-02-14T11:28:03.446Z,47.60
2019-02-14T11:30:31.754Z,48.00
2019-02-14T11:33:00.493Z,47.90
2019-02-14T11:35:30.430Z,47.80
2019-02-14T11:37:58.717Z,47.70
2019-02-14T11:40:27.036Z,47.60
2019-02-14T11:42:56.960Z,47.70
2019-02-14T11:45:25.832Z,47.80
2019-02-14T11:47:54.162Z,47.80
2019-02-14T11:50:24.606Z,47.70
2019-02-14T11:52:53.266Z,47.60
2019-02-14T11:55:21.844Z,47.60
2019-02-14T11:57:50.158Z,47.50
2019-02-14T12:00:26.210Z,47.50
2019-02-14T12:02:55.977Z,47.60
2019-02-14T12:05:24.884Z,47.80
2019-02-14T12:07:53.480Z,47.70
2019-02-14T12:10:22.151Z,47.80
2019-02-14T12:12:50.477Z,47.90
2019-02-14T12:15:18.871Z,47.80
2019-02-14T12:17:48.658Z,47.70
2019-02-14T12:20:17.328Z,47.70
2019-02-14T12:22:47.202Z,47.50
2019-02-14T12:25:18.869Z,47.50
2019-02-14T12:27:47.523Z,47.70
2019-02-14T12:30:17.593Z,47.60
2019-02-14T12:32:46.163Z,47.30
2019-02-14T12:35:14.453Z,47.30
2019-02-14T12:37:42.777Z,47.40
2019-02-14T12:40:12.867Z,47.40
2019-02-14T12:42:41.247Z,47.50
2019-02-14T12:45:20.684Z,47.50
2019-02-14T12:47:48.007Z,47.50
2019-02-14T12:50:16.333Z,47.40
2019-02-14T12:52:44.973Z,47.30
2019-02-14T12:55:13.662Z,47.30
2019-02-14T12:57:42.243Z,47.40
2019-02-14T13:00:22.848Z,47.50
2019-02-14T13:02:51.504Z,47.60
2019-02-14T13:05:19.892Z,47.60
2019-02-14T13:07:48.193Z,47.70
2019-02-14T13:10:17.958Z,47.70
2019-02-14T13:12:46.323Z,47.80
2019-02-14T13:15:17.523Z,47.60
2019-02-14T13:17:45.822Z,47.70
2019-02-14T13:20:14.150Z,47.40
2019-02-14T13:22:42.475Z,47.10
2019-02-14T13:25:11.911Z,47.40
2019-02-14T13:27:40.327Z,47.40
2019-02-14T13:30:12.061Z,47.50
2019-02-14T13:32:40.662Z,47.60
2019-02-14T13:35:08.959Z,47.70
2019-02-14T13:37:40.150Z,47.70
2019-02-14T13:40:09.262Z,47.80
2019-02-14T13:42:37.630Z,48.00
2019-02-14T13:45:09.361Z,47.90
2019-02-14T13:47:37.684Z,47.90
2019-02-14T13:50:08.746Z,48.00
2019-02-14T13:52:37.408Z,47.90
2019-02-14T13:55:07.938Z,47.80
2019-02-14T13:57:36.243Z,47.80
2019-02-14T14:00:25.729Z,47.90
2019-02-14T14:02:54.087Z,47.80
2019-02-14T14:05:22.458Z,47.70
2019-02-14T14:07:51.340Z,47.80
2019-02-14T14:10:19.905Z,47.80
2019-02-14T14:12:48.501Z,47.90
2019-02-14T14:15:17.086Z,47.90
2019-02-14T14:17:45.379Z,47.90
2019-02-14T14:20:13.940Z,47.80
2019-02-14T14:22:42.522Z,47.80
2019-02-14T14:25:13.796Z,47.60
2019-02-14T14:27:42.109Z,47.70
2019-02-14T14:30:13.948Z,47.70
2019-02-14T14:32:42.261Z,47.80
2019-02-14T14:35:11.478Z,47.70
2019-02-14T14:37:40.471Z,47.60
2019-02-14T14:40:14.544Z,47.60
2019-02-14T14:42:44.478Z,47.60
2019-02-14T14:45:14.426Z,47.50
2019-02-14T14:47:42.754Z,47.70
2019-02-14T14:50:11.056Z,47.60
2019-02-14T14:52:39.358Z,47.70
2019-02-14T14:55:07.662Z,47.80
2019-02-14T14:57:35.986Z,47.80
2019-02-14T15:00:05.810Z,47.80
2019-02-14T15:02:34.526Z,47.70
2019-02-14T15:05:02.906Z,47.70
2019-02-14T15:07:31.473Z,47.70
2019-02-14T15:10:00.072Z,47.80
2019-02-14T15:12:28.743Z,47.70
2019-02-14T15:14:57.039Z,47.60
2019-02-14T15:17:25.363Z,47.50
2019-02-14T15:19:53.993Z,47.50
2019-02-14T15:22:23.392Z,47.60
2019-02-14T15:24:51.692Z,47.80
2019-02-14T15:27:20.255Z,47.70
2019-02-14T15:29:48.831Z,47.80
2019-02-14T15:32:17.147Z,48.10
2019-02-14T15:34:45.795Z,48.30
2019-02-14T15:37:15.463Z,48.40
2019-02-14T15:39:44.418Z,48.30
2019-02-14T15:42:12.985Z,48.10
2019-02-14T15:44:41.568Z,47.80
2019-02-14T15:47:10.252Z,47.80
2019-02-14T15:49:38.568Z,47.50
2019-02-14T15:52:08.142Z,47.10
2019-02-14T15:54:36.471Z,46.80
2019-02-14T15:57:04.762Z,46.50
2019-02-14T15:59:33.438Z,46.40
2019-02-14T16:02:03.795Z,46.40
2019-02-14T16:04:31.938Z,46.10
2019-02-14T16:07:00.638Z,46.10
2019-02-14T16:09:29.346Z,46.10
2019-02-14T16:11:58.001Z,46.00
2019-02-14T16:14:26.422Z,45.90
2019-02-14T16:16:54.709Z,45.80
2019-02-14T16:19:23.374Z,45.90
2019-02-14T16:21:53.717Z,46.00
2019-02-14T16:24:21.972Z,46.00
2019-02-14T16:26:50.364Z,46.10
2019-02-14T16:29:19.039Z,46.00
2019-02-14T16:31:47.624Z,45.90
2019-02-14T16:34:16.210Z,45.80
2019-02-14T16:36:44.517Z,45.50
2019-02-14T16:39:12.884Z,45.60
2019-02-14T16:41:41.453Z,45.70
2019-02-14T16:44:09.766Z,45.70
2019-02-14T16:46:38.063Z,45.60
2019-02-14T16:49:06.354Z,45.80
2019-02-14T16:51:34.797Z,45.90
2019-02-14T16:54:04.819Z,46.00
2019-02-14T16:56:33.155Z,46.20
2019-02-14T16:59:01.483Z,45.90
2019-02-14T17:01:30.131Z,45.90
2019-02-14T17:03:58.607Z,45.90
2019-02-14T17:06:27.195Z,46.50
2019-02-14T17:08:56.177Z,46.10
2019-02-14T17:11:24.714Z,46.30
2019-02-14T17:13:53.067Z,46.10
2019-02-14T17:16:24.436Z,46.10
2019-02-14T17:18:52.845Z,46.20
2019-02-14T17:21:21.467Z,46.70
2019-02-14T17:23:50.099Z,46.00
2019-02-14T17:26:18.414Z,45.90
2019-02-14T17:28:47.097Z,46.10
2019-02-14T17:31:15.663Z,46.30
2019-02-14T17:33:44.018Z,46.10
2019-02-14T17:36:12.349Z,46.10
2019-02-14T17:38:40.661Z,46.20
2019-02-14T17:41:09.093Z,46.30
2019-02-14T17:43:37.850Z,46.50
2019-02-14T17:46:06.222Z,46.70
2019-02-14T17:48:36.727Z,47.60
2019-02-14T17:51:05.170Z,47.50
2019-02-14T17:53:33.746Z,47.50
2019-02-14T17:56:02.039Z,47.40
2019-02-14T17:58:30.613Z,47.40
2019-02-14T18:00:59.217Z,48.70
2019-02-14T18:03:27.607Z,48.20
2019-02-14T18:05:55.933Z,48.00
2019-02-14T18:08:24.272Z,47.80
2019-02-14T18:10:54.952Z,48.00
2019-02-14T18:13:22.962Z,50.10
2019-02-14T18:15:51.628Z,51.00
2019-02-14T18:18:20.308Z,51.00
2019-02-14T18:20:48.603Z,53.00
2019-02-14T18:23:16.912Z,52.00
2019-02-14T18:25:45.284Z,51.70
2019-02-14T18:28:13.924Z,52.30
2019-02-14T18:30:42.515Z,52.30
2019-02-14T18:33:11.079Z,52.40
2019-02-14T18:35:39.380Z,52.60
2019-02-14T18:38:07.975Z,52.60
2019-02-14T18:40:36.660Z,52.60
2019-02-14T18:43:05.340Z,52.60
2019-02-14T18:45:33.679Z,52.50
2019-02-14T18:48:02.112Z,52.10
2019-02-14T18:50:30.882Z,51.70
2019-02-14T18:52:59.571Z,51.20
2019-02-14T18:55:27.869Z,50.90
2019-02-14T18:57:56.626Z,51.10
2019-02-14T19:00:25.173Z,50.20
2019-02-14T19:02:53.803Z,50.80
2019-02-14T19:05:22.090Z,50.20
2019-02-14T19:07:50.782Z,50.80
2019-02-14T19:10:19.142Z,50.60
2019-02-14T19:12:47.496Z,50.70
2019-02-14T19:15:15.812Z,50.80
2019-02-14T19:17:44.467Z,51.10
2019-02-14T19:20:13.508Z,50.90
2019-02-14T19:22:42.275Z,50.80
2019-02-14T19:25:10.579Z,50.10
2019-02-14T19:27:38.907Z,49.80
2019-02-14T19:30:09.680Z,49.50
2019-02-14T19:32:38.246Z,48.90
2019-02-14T19:35:08.870Z,48.70
2019-02-14T19:37:37.317Z,48.90
2019-02-14T19:40:08.728Z,48.70
2019-02-14T19:42:37.015Z,48.50
2019-02-14T19:45:13.468Z,48.40
2019-02-14T19:47:41.893Z,48.90
2019-02-14T19:50:11.675Z,49.00
2019-02-14T19:52:39.980Z,49.20
2019-02-14T19:55:09.351Z,50.00
2019-02-14T19:57:38.004Z,49.40
2019-02-14T20:00:14.848Z,49.40
2019-02-14T20:02:43.945Z,49.50
2019-02-14T20:05:13.239Z,49.40
2019-02-14T20:07:41.780Z,49.50
2019-02-14T20:10:12.205Z,49.40
2019-02-14T20:12:40.615Z,49.20
2019-02-14T20:15:11.806Z,49.00
2019-02-14T20:17:40.133Z,48.70
2019-02-14T20:20:09.513Z,48.50
2019-02-14T20:22:38.192Z,48.30
2019-02-14T20:25:24.896Z,48.20
2019-02-14T20:27:53.291Z,48.00
2019-02-14T20:30:22.050Z,47.90
2019-02-14T20:32:50.390Z,47.80
2019-02-14T20:35:19.157Z,47.90
2019-02-14T20:37:47.531Z,47.90
2019-02-14T20:40:16.109Z,47.80
2019-02-14T20:42:44.732Z,47.80
2019-02-14T20:45:16.020Z,47.90
2019-02-14T20:47:44.395Z,48.20
2019-02-14T20:50:15.865Z,48.40
2019-02-14T20:52:44.319Z,48.20
2019-02-14T20:55:15.989Z,48.40
2019-02-14T20:57:44.708Z,48.50
2019-02-14T21:00:14.659Z,48.90
2019-02-14T21:02:43.255Z,48.30
2019-02-14T21:05:12.057Z,47.80
2019-02-14T21:07:40.350Z,47.80
2019-02-14T21:10:08.907Z,47.70
2019-02-14T21:12:37.355Z,47.60
2019-02-14T21:15:07.548Z,47.50
2019-02-14T21:17:35.878Z,47.50
2019-02-14T21:20:07.043Z,47.40
2019-02-14T21:22:35.351Z,47.40
2019-02-14T21:25:04.771Z,47.30
2019-02-14T21:27:35.189Z,47.40
2019-02-14T21:30:03.612Z,47.60
2019-02-14T21:32:31.980Z,47.80
2019-02-14T21:35:00.684Z,47.80
2019-02-14T21:37:29.154Z,48.00
2019-02-14T21:39:57.492Z,48.20
2019-02-14T21:42:29.434Z,48.10
2019-02-14T21:44:55.890Z,48.00
2019-02-14T21:47:24.517Z,47.80
2019-02-14T21:49:52.894Z,47.30
2019-02-14T21:52:21.219Z,47.30
2019-02-14T21:54:49.873Z,47.20
2019-02-14T21:57:18.374Z,47.40
2019-02-14T21:59:46.840Z,47.50
2019-02-14T22:02:15.458Z,47.60
2019-02-14T22:04:43.843Z,47.60
2019-02-14T22:07:12.160Z,47.80
2019-02-14T22:09:40.634Z,47.90
2019-02-14T22:12:09.029Z,47.90
2019-02-14T22:14:37.328Z,48.00
2019-02-14T22:17:05.766Z,48.10
2019-02-14T22:19:34.415Z,48.00
2019-02-14T22:22:02.724Z,48.10
2019-02-14T22:24:31.023Z,48.00
2019-02-14T22:26:59.314Z,47.90
2019-02-14T22:29:27.943Z,47.80
2019-02-14T22:31:56.309Z,46.90
2019-02-14T22:34:24.876Z,47.20
2019-02-14T22:36:53.226Z,47.00
2019-02-14T22:39:21.555Z,46.80
2019-02-14T22:41:49.923Z,46.80
2019-02-14T22:44:18.209Z,47.00
2019-02-14T22:46:46.526Z,47.20
2019-02-14T22:49:15.288Z,47.30
2019-02-14T22:51:45.817Z,47.40
2019-02-14T22:54:14.185Z,47.60
2019-02-14T22:56:42.492Z,47.70
2019-02-14T22:59:11.142Z,47.80
2019-02-14T23:01:39.712Z,47.50
2019-02-14T23:04:08.318Z,47.40
2019-02-14T23:06:39.352Z,47.20
2019-02-14T23:09:08.395Z,46.90
2019-02-14T23:11:37.027Z,47.00
2019-02-14T23:14:05.422Z,46.90
2019-02-14T23:16:34.107Z,47.00
2019-02-14T23:19:02.655Z,47.20
2019-02-14T23:21:31.266Z,47.30
2019-02-14T23:23:59.818Z,47.60
2019-02-14T23:26:28.400Z,47.60
2019-02-14T23:28:56.950Z,47.80
2019-02-14T23:31:25.907Z,48.60
2019-02-14T23:33:54.209Z,47.70
2019-02-14T23:36:22.615Z,47.70
2019-02-14T23:38:50.938Z,47.70
2019-02-14T23:41:19.507Z,47.70
2019-02-14T23:43:47.798Z,47.80
2019-02-14T23:46:16.388Z,47.80
2019-02-14T23:48:44.975Z,47.90
2019-02-14T23:51:13.557Z,47.90
2019-02-14T23:53:41.867Z,47.90
2019-02-14T23:56:10.182Z,48.00
2019-02-14T23:58:38.916Z,47.90
